Time;durP1;ratioP1;P1;durP2;ratioP2;P2;SDS_P1;SDS_P2;PMS_P1;PMS_P2;Temp;Humidity;BMP_temperature;BMP_pressure;BME280_temperature;BME280_humidity;BME280_pressure;Samples;Min_cycle;Max_cycle;Signal;HPM_P1;HPM_P2
2022/10/13 00:00:47;;;;;;;2.58;1.13;;;19.10;49.60;;;;;;4933278;29;20234;-37
2022/10/13 00:03:18;;;;;;;1.50;1.10;;;19.10;49.60;;;;;;4933603;29;20196;-38
2022/10/13 00:05:52;;;;;;;2.15;1.30;;;19.10;49.60;;;;;;4933485;29;20659;-37
2022/10/13 00:08:25;;;;;;;3.42;1.30;;;19.20;49.60;;;;;;4933511;29;20192;-38
2022/10/13 00:10:55;;;;;;;2.30;1.30;;;19.20;49.50;;;;;;4934200;29;20258;-37
2022/10/13 00:13:26;;;;;;;3.75;1.45;;;19.20;49.50;;;;;;4933987;29;20196;-50
2022/10/13 00:15:57;;;;;;;3.10;1.40;;;19.20;49.50;;;;;;4933715;29;20196;-39
2022/10/13 00:18:27;;;;;;;4.70;1.42;;;19.20;49.50;;;;;;4930942;29;20204;-41
2022/10/13 00:21:00;;;;;;;2.92;1.55;;;19.20;49.40;;;;;;4914430;29;20228;-40
2022/10/13 00:23:31;;;;;;;2.35;1.35;;;19.20;49.40;;;;;;4914300;29;20207;-41
2022/10/13 00:26:04;;;;;;;2.25;1.33;;;19.20;49.40;;;;;;4918955;29;20222;-38
2022/10/13 00:28:35;;;;;;;2.75;1.17;;;19.30;49.40;;;;;;4933289;29;20199;-50
2022/10/13 00:31:15;;;;;;;1.80;1.30;;;19.30;49.40;;;;;;4932639;29;20210;-42
2022/10/13 00:33:48;;;;;;;2.13;1.10;;;19.30;49.40;;;;;;4932497;29;20215;-37
2022/10/13 00:36:21;;;;;;;2.67;1.20;;;19.30;49.40;;;;;;4933413;29;20231;-37
2022/10/13 00:38:51;;;;;;;2.17;1.23;;;19.30;49.30;;;;;;4933279;29;20275;-38
2022/10/13 00:41:22;;;;;;;2.47;1.20;;;19.30;49.30;;;;;;4933598;29;20227;-38
2022/10/13 00:44:03;;;;;;;1.77;1.25;;;19.40;49.30;;;;;;4933610;29;20222;-44
2022/10/13 00:46:35;;;;;;;2.08;1.10;;;19.40;49.30;;;;;;4933563;29;20196;-43
2022/10/13 00:49:09;;;;;;;1.65;1.00;;;19.40;49.20;;;;;;4933324;29;20206;-37
2022/10/13 00:51:45;;;;;;;1.88;1.20;;;19.40;49.30;;;;;;4933319;29;20199;-42
2022/10/13 00:54:20;;;;;;;2.08;1.20;;;19.50;49.30;;;;;;4932251;29;20262;-41
2022/10/13 00:56:52;;;;;;;1.30;1.02;;;19.50;49.30;;;;;;4933640;29;20206;-41
2022/10/13 00:59:27;;;;;;;1.98;1.10;;;19.50;49.20;;;;;;4928663;29;20200;-42
2022/10/13 01:01:59;;;;;;;3.10;1.15;;;19.50;49.20;;;;;;4933058;29;20233;-49
2022/10/13 01:04:36;;;;;;;2.13;1.00;;;19.50;49.20;;;;;;4928917;29;20228;-38
2022/10/13 01:07:09;;;;;;;1.33;1.05;;;19.60;49.20;;;;;;4914340;29;20208;-45
2022/10/13 01:09:41;;;;;;;1.85;1.10;;;19.60;49.20;;;;;;4914002;29;20192;-40
2022/10/13 01:12:21;;;;;;;1.75;1.10;;;19.60;49.10;;;;;;4914132;29;20211;-48
2022/10/13 01:15:01;;;;;;;2.90;1.30;;;19.60;49.10;;;;;;4913848;29;20864;-49
2022/10/13 01:17:37;;;;;;;2.03;1.23;;;19.70;49.10;;;;;;4924118;29;20663;-43
2022/10/13 01:20:39;;;;;;;1.77;1.00;;;19.70;49.10;;;;;;4932439;29;20199;-39
2022/10/13 01:23:40;;;;;;;1.17;0.88;;;19.70;49.00;;;;;;4915307;29;20313;-37
2022/10/13 01:26:48;;;;;;;2.78;1.00;;;19.70;48.80;;;;;;4920170;29;20214;-41
2022/10/13 01:29:45;;;;;;;1.75;1.05;;;19.70;48.80;;;;;;4898755;29;20213;-43
2022/10/13 01:32:22;;;;;;;2.20;1.20;;;19.70;48.80;;;;;;4931027;29;20690;-37
2022/10/13 01:34:59;;;;;;;2.42;0.90;;;19.80;48.80;;;;;;4936290;29;20585;-39
2022/10/13 01:37:34;;;;;;;0.88;0.80;;;19.80;48.80;;;;;;4936339;29;20443;-42
2022/10/13 01:40:10;;;;;;;1.70;0.95;;;19.80;48.80;;;;;;4937182;29;20671;-41
2022/10/13 01:42:49;;;;;;;1.48;0.95;;;19.80;48.80;;;;;;4935704;29;20203;-38
2022/10/13 01:45:23;;;;;;;2.00;1.02;;;19.90;48.80;;;;;;4936487;29;20212;-39
2022/10/13 01:47:57;;;;;;;2.20;0.95;;;19.90;48.80;;;;;;4936159;29;20655;-45
2022/10/13 01:50:29;;;;;;;3.45;1.15;;;19.90;48.60;;;;;;4935653;29;20199;-42
2022/10/13 01:53:03;;;;;;;1.65;1.15;;;19.90;48.50;;;;;;4933727;29;20199;-40
2022/10/13 01:55:34;;;;;;;2.20;1.13;;;19.90;48.40;;;;;;4918835;29;20680;-42
2022/10/13 01:58:05;;;;;;;2.70;1.02;;;19.90;48.30;;;;;;4935971;29;20199;-40
2022/10/13 02:00:44;;;;;;;2.05;1.10;;;19.90;48.30;;;;;;4935412;29;20231;-38
2022/10/13 02:03:25;;;;;;;2.13;1.10;;;20.00;48.40;;;;;;4936231;29;20259;-42
2022/10/13 02:06:04;;;;;;;1.50;1.00;;;20.00;48.40;;;;;;4935316;29;20689;-41
2022/10/13 02:08:41;;;;;;;1.50;0.93;;;20.00;48.40;;;;;;4935743;29;20206;-40
2022/10/13 02:11:17;;;;;;;1.83;0.90;;;20.00;48.40;;;;;;4934344;29;20931;-42
2022/10/13 02:13:53;;;;;;;2.65;0.90;;;20.10;48.40;;;;;;4934573;29;20307;-41
2022/10/13 02:16:24;;;;;;;1.95;0.90;;;20.10;48.40;;;;;;4934447;29;20585;-42
2022/10/13 02:18:59;;;;;;;1.83;0.80;;;20.10;48.40;;;;;;4935102;29;20200;-42
2022/10/13 02:21:30;;;;;;;1.60;0.80;;;20.20;48.40;;;;;;4953566;28;20593;-37
2022/10/13 02:24:01;;;;;;;2.33;0.90;;;20.20;48.30;;;;;;4953734;28;20302;-44
2022/10/13 02:26:32;;;;;;;1.20;0.90;;;20.20;48.20;;;;;;4944660;28;20723;-39
2022/10/13 02:29:09;;;;;;;1.27;0.90;;;20.20;48.10;;;;;;4934608;29;20207;-46
2022/10/13 02:31:40;;;;;;;2.33;1.00;;;20.20;47.90;;;;;;4933681;29;20210;-42
2022/10/13 02:34:13;;;;;;;3.38;1.33;;;20.30;47.80;;;;;;4936434;29;20246;-44
2022/10/13 02:36:44;;;;;;;2.08;1.02;;;20.30;47.90;;;;;;4953735;28;20543;-40
2022/10/13 02:39:15;;;;;;;3.25;1.20;;;20.30;47.90;;;;;;4954179;28;20199;-40
2022/10/13 02:41:47;;;;;;;1.88;0.82;;;20.30;47.80;;;;;;4953494;28;20226;-39
2022/10/13 02:44:18;;;;;;;1.40;1.20;;;20.30;47.80;;;;;;4953226;28;20215;-39
2022/10/13 02:46:48;;;;;;;1.55;0.88;;;20.30;47.70;;;;;;4953116;28;20647;-41
2022/10/13 02:49:21;;;;;;;1.95;1.10;;;20.30;47.70;;;;;;4952940;28;20203;-44
2022/10/13 02:51:52;;;;;;;1.20;0.90;;;20.40;47.80;;;;;;4953109;28;20205;-37
2022/10/13 02:54:22;;;;;;;3.22;0.93;;;20.40;47.70;;;;;;4953274;28;20250;-37
2022/10/13 02:56:53;;;;;;;2.42;0.80;;;20.40;47.70;;;;;;4941456;28;20203;-37
2022/10/13 02:59:24;;;;;;;1.73;0.98;;;20.40;47.60;;;;;;4929497;29;20221;-40
2022/10/13 03:01:55;;;;;;;2.17;0.80;;;20.40;47.60;;;;;;4935234;29;20236;-37
2022/10/13 03:04:28;;;;;;;1.52;0.90;;;20.40;47.40;;;;;;4932836;29;20266;-40
2022/10/13 03:06:58;;;;;;;1.58;0.93;;;20.40;47.10;;;;;;4935156;29;20207;-43
2022/10/13 03:09:29;;;;;;;1.42;0.90;;;20.50;47.30;;;;;;4934860;29;20199;-48
2022/10/13 03:12:00;;;;;;;1.75;1.00;;;20.50;47.40;;;;;;4933930;29;20687;-41
2022/10/13 03:14:31;;;;;;;1.60;0.93;;;20.50;47.30;;;;;;4933677;29;20215;-46
2022/10/13 03:17:02;;;;;;;1.92;1.02;;;20.50;47.00;;;;;;4928438;29;20200;-48
2022/10/13 03:19:34;;;;;;;1.73;0.75;;;20.50;46.90;;;;;;4915889;29;20656;-37
2022/10/13 03:22:05;;;;;;;1.77;0.95;;;20.50;46.90;;;;;;4915384;29;20232;-38
2022/10/13 03:24:36;;;;;;;2.47;1.00;;;20.50;46.80;;;;;;4915919;29;20685;-42
2022/10/13 03:27:06;;;;;;;3.20;1.15;;;20.50;46.60;;;;;;4928667;29;20308;-37
2022/10/13 03:29:37;;;;;;;2.70;1.15;;;20.50;46.50;;;;;;4934411;29;20202;-38
2022/10/13 03:32:08;;;;;;;2.97;0.73;;;20.50;46.50;;;;;;4933491;29;20231;-37
2022/10/13 03:34:41;;;;;;;2.17;0.98;;;20.50;46.50;;;;;;4930778;29;20234;-42
2022/10/13 03:37:11;;;;;;;1.92;1.00;;;20.50;46.50;;;;;;4934404;29;20666;-42
2022/10/13 03:39:42;;;;;;;2.63;1.00;;;20.50;46.40;;;;;;4923497;29;20204;-46
2022/10/13 03:42:13;;;;;;;2.28;0.90;;;20.40;46.40;;;;;;4914683;29;20238;-37
2022/10/13 03:44:44;;;;;;;1.48;0.85;;;20.40;46.20;;;;;;4914668;29;20216;-37
2022/10/13 03:47:14;;;;;;;3.00;1.10;;;20.40;46.20;;;;;;4915204;29;20656;-37
2022/10/13 03:49:47;;;;;;;2.47;1.10;;;20.40;46.10;;;;;;4914243;29;20200;-37
2022/10/13 03:52:18;;;;;;;1.70;1.00;;;20.40;45.80;;;;;;4923364;29;20210;-38
2022/10/13 03:54:48;;;;;;;2.53;1.20;;;20.40;45.90;;;;;;4918841;29;20212;-39
2022/10/13 03:57:19;;;;;;;2.42;0.90;;;20.40;45.90;;;;;;4930580;29;20232;-38
2022/10/13 03:59:50;;;;;;;2.30;1.15;;;20.40;45.90;;;;;;4934013;29;20226;-37
2022/10/13 04:02:20;;;;;;;3.88;1.20;;;20.40;45.60;;;;;;4933475;29;20714;-36
2022/10/13 04:04:53;;;;;;;1.90;1.00;;;20.40;45.50;;;;;;4934323;29;20222;-38
2022/10/13 04:07:24;;;;;;;2.03;1.05;;;20.40;45.30;;;;;;4933769;29;20577;-37
2022/10/13 04:09:54;;;;;;;2.22;1.10;;;20.30;45.40;;;;;;4933518;29;20659;-41
2022/10/13 04:12:25;;;;;;;2.10;0.93;;;20.30;46.10;;;;;;4933258;29;20203;-39
2022/10/13 04:14:56;;;;;;;2.10;0.85;;;20.40;46.50;;;;;;4933520;29;20251;-37
2022/10/13 04:17:27;;;;;;;1.67;1.00;;;20.40;46.40;;;;;;4933311;29;20572;-41
2022/10/13 04:19:59;;;;;;;2.08;1.15;;;20.40;46.10;;;;;;4933225;29;20675;-37
2022/10/13 04:22:30;;;;;;;2.88;1.08;;;20.50;46.20;;;;;;4933677;29;20239;-43
2022/10/13 04:25:01;;;;;;;2.03;1.15;;;20.50;46.20;;;;;;4933677;29;20219;-38
2022/10/13 04:27:31;;;;;;;1.55;0.90;;;20.50;46.20;;;;;;4933695;29;20204;-39
2022/10/13 04:30:02;;;;;;;1.92;1.00;;;20.50;46.20;;;;;;4932262;29;20199;-39
2022/10/13 04:32:33;;;;;;;2.08;1.23;;;20.50;46.10;;;;;;4933451;29;20206;-38
2022/10/13 04:35:06;;;;;;;2.78;1.02;;;20.50;45.90;;;;;;4932964;29;20219;-37
2022/10/13 04:37:37;;;;;;;3.53;1.13;;;20.40;45.70;;;;;;4933823;29;20207;-37
2022/10/13 04:40:10;;;;;;;5.13;1.27;;;20.40;45.50;;;;;;4933129;29;20191;-37
2022/10/13 04:42:40;;;;;;;3.83;1.10;;;20.40;45.50;;;;;;4932863;29;20228;-37
2022/10/13 04:45:12;;;;;;;3.10;1.17;;;20.40;45.60;;;;;;4933338;29;20242;-37
2022/10/13 04:47:42;;;;;;;2.80;1.15;;;20.40;45.60;;;;;;4933218;29;20196;-37
2022/10/13 04:50:15;;;;;;;2.22;1.17;;;20.40;46.20;;;;;;4932839;29;20211;-37
2022/10/13 04:52:46;;;;;;;2.63;1.10;;;20.40;45.60;;;;;;4933785;29;20209;-41
2022/10/13 04:55:17;;;;;;;2.40;0.98;;;20.40;45.40;;;;;;4914663;29;20220;-39
2022/10/13 04:57:48;;;;;;;3.80;1.10;;;20.40;45.40;;;;;;4913990;29;20207;-37
2022/10/13 05:00:19;;;;;;;2.75;1.30;;;20.40;45.20;;;;;;4914874;29;20207;-39
2022/10/13 05:02:50;;;;;;;2.92;1.05;;;20.40;45.20;;;;;;4913668;29;20227;-37
2022/10/13 05:05:22;;;;;;;2.55;1.00;;;20.40;45.10;;;;;;4914328;29;20614;-38
2022/10/13 05:07:53;;;;;;;1.52;0.80;;;20.40;45.30;;;;;;4913840;29;20231;-39
2022/10/13 05:10:24;;;;;;;3.00;1.08;;;20.40;45.30;;;;;;4917562;29;20200;-46
2022/10/13 05:12:57;;;;;;;2.95;1.10;;;20.40;45.30;;;;;;4919404;29;20204;-41
2022/10/13 05:15:28;;;;;;;2.03;1.00;;;20.30;45.30;;;;;;4936041;29;20242;-37
2022/10/13 05:18:00;;;;;;;2.00;1.00;;;20.30;45.40;;;;;;4936750;29;20200;-37
2022/10/13 05:20:35;;;;;;;2.22;1.20;;;20.30;45.40;;;;;;4935854;29;20200;-38
2022/10/13 05:23:06;;;;;;;3.20;1.33;;;20.30;45.50;;;;;;4936418;29;20223;-40
2022/10/13 05:25:38;;;;;;;2.80;1.10;;;20.30;45.60;;;;;;4934808;29;20219;-38
2022/10/13 05:28:09;;;;;;;2.70;1.25;;;20.30;45.60;;;;;;4935823;29;20203;-38
2022/10/13 05:30:40;;;;;;;2.60;1.05;;;20.30;45.60;;;;;;4936575;29;20682;-42
2022/10/13 05:33:10;;;;;;;2.33;1.00;;;20.30;45.60;;;;;;4936047;29;20767;-41
2022/10/13 05:35:43;;;;;;;3.03;1.10;;;20.30;45.60;;;;;;4935884;29;20223;-40
2022/10/13 05:38:14;;;;;;;2.50;1.17;;;20.30;45.60;;;;;;4936505;29;20211;-36
2022/10/13 05:40:44;;;;;;;3.00;1.00;;;20.30;46.20;;;;;;4933067;29;20555;-37
2022/10/13 05:43:15;;;;;;;2.13;1.10;;;20.20;45.60;;;;;;4936369;29;20224;-47
2022/10/13 05:45:46;;;;;;;2.47;1.25;;;20.20;45.70;;;;;;4936383;29;20219;-37
2022/10/13 05:48:16;;;;;;;2.10;1.00;;;20.20;45.70;;;;;;4935258;29;20203;-46
2022/10/13 05:50:49;;;;;;;2.17;0.95;;;20.20;45.70;;;;;;4936264;29;20204;-37
2022/10/13 05:53:20;;;;;;;1.55;0.80;;;20.20;45.70;;;;;;4932616;29;20199;-38
2022/10/13 05:55:51;;;;;;;2.15;1.00;;;20.20;45.80;;;;;;4921010;29;20228;-43
2022/10/13 05:58:22;;;;;;;2.40;0.95;;;20.20;45.80;;;;;;4935185;29;20207;-43
2022/10/13 06:00:54;;;;;;;2.97;1.33;;;20.20;45.90;;;;;;4935475;29;20208;-41
2022/10/13 06:03:26;;;;;;;2.33;1.10;;;20.20;45.90;;;;;;4935515;29;20227;-41
2022/10/13 06:05:59;;;;;;;2.92;1.20;;;20.10;45.90;;;;;;4929948;29;20188;-38
2022/10/13 06:08:30;;;;;;;2.50;1.00;;;20.10;45.90;;;;;;4915858;29;20204;-37
2022/10/13 06:11:01;;;;;;;3.15;1.38;;;20.10;45.90;;;;;;4917016;29;20196;-41
2022/10/13 06:13:32;;;;;;;1.98;1.10;;;20.10;45.90;;;;;;4916974;29;20204;-41
2022/10/13 06:16:03;;;;;;;3.13;0.98;;;20.10;45.90;;;;;;4916598;29;20672;-40
2022/10/13 06:18:33;;;;;;;2.42;1.17;;;20.00;45.90;;;;;;4916442;29;20285;-43
2022/10/13 06:21:06;;;;;;;2.13;1.17;;;20.00;46.00;;;;;;4914752;29;20200;-38
2022/10/13 06:23:37;;;;;;;2.58;1.00;;;20.00;46.00;;;;;;4916457;29;20239;-39
2022/10/13 06:26:09;;;;;;;1.73;1.10;;;20.00;46.00;;;;;;4922669;29;20663;-37
2022/10/13 06:28:40;;;;;;;2.35;1.23;;;20.00;46.10;;;;;;4935403;29;20199;-38
2022/10/13 06:31:11;;;;;;;3.45;1.13;;;20.00;46.10;;;;;;4934621;29;20195;-44
2022/10/13 06:33:41;;;;;;;2.00;1.27;;;20.00;46.10;;;;;;4933206;29;20210;-44
2022/10/13 06:36:14;;;;;;;1.33;0.70;;;20.00;46.10;;;;;;4916727;29;20286;-37
2022/10/13 06:38:45;;;;;;;2.88;1.30;;;20.00;46.10;;;;;;4915620;29;20207;-37
2022/10/13 06:41:16;;;;;;;2.35;0.93;;;19.90;46.10;;;;;;4916361;29;20199;-38
2022/10/13 06:43:47;;;;;;;1.85;1.10;;;20.00;46.20;;;;;;4915603;29;20235;-38
2022/10/13 06:46:17;;;;;;;1.65;0.93;;;19.90;46.10;;;;;;4914025;29;20200;-41
2022/10/13 06:48:51;;;;;;;2.25;1.00;;;19.90;46.10;;;;;;4914568;29;20830;-37
2022/10/13 06:51:23;;;;;;;3.53;1.00;;;19.90;46.10;;;;;;4914456;29;20212;-37
2022/10/13 06:53:54;;;;;;;2.83;1.30;;;19.80;46.10;;;;;;4942266;28;20627;-41
2022/10/13 06:56:25;;;;;;;2.72;1.17;;;19.80;46.10;;;;;;4945373;28;20711;-39
2022/10/13 06:58:56;;;;;;;3.03;1.15;;;19.80;46.10;;;;;;4934103;29;20551;-43
2022/10/13 07:01:26;;;;;;;1.77;1.15;;;19.80;46.10;;;;;;4933901;29;20294;-44
2022/10/13 07:03:57;;;;;;;1.83;0.95;;;19.70;46.10;;;;;;4933241;29;20239;-40
2022/10/13 07:06:30;;;;;;;1.65;1.02;;;19.80;46.10;;;;;;4933909;29;20203;-37
2022/10/13 07:09:03;;;;;;;2.00;1.27;;;19.70;46.10;;;;;;4947211;29;20225;-39
2022/10/13 07:11:34;;;;;;;2.10;1.10;;;19.70;46.10;;;;;;4952845;28;20202;-40
2022/10/13 07:14:05;;;;;;;1.45;1.00;;;19.70;46.10;;;;;;4952920;28;20230;-40
2022/10/13 07:16:36;;;;;;;2.28;1.00;;;19.70;46.20;;;;;;4934792;28;20710;-37
2022/10/13 07:19:06;;;;;;;1.45;1.00;;;19.60;46.20;;;;;;4928075;29;20199;-37
2022/10/13 07:21:39;;;;;;;2.25;1.10;;;19.60;46.30;;;;;;4927787;29;20207;-37
2022/10/13 07:24:11;;;;;;;1.70;1.00;;;19.60;46.30;;;;;;4947378;28;20223;-39
2022/10/13 07:26:42;;;;;;;3.38;1.15;;;19.60;46.30;;;;;;4942379;28;20215;-39
2022/10/13 07:29:13;;;;;;;1.95;1.08;;;19.50;46.30;;;;;;4933195;29;20199;-38
2022/10/13 07:31:45;;;;;;;2.50;1.30;;;19.50;46.30;;;;;;4932359;29;20198;-37
2022/10/13 07:34:17;;;;;;;1.05;0.82;;;19.50;46.30;;;;;;4932497;29;20230;-43
2022/10/13 07:36:50;;;;;;;1.63;0.90;;;19.50;46.30;;;;;;4933245;29;20199;-37
2022/10/13 07:39:20;;;;;;;1.63;1.05;;;19.50;46.20;;;;;;4942513;29;20199;-40
2022/10/13 07:41:52;;;;;;;1.40;0.90;;;19.50;46.30;;;;;;4914796;29;20203;-38
2022/10/13 07:44:23;;;;;;;1.75;0.80;;;19.40;46.30;;;;;;4914186;29;20438;-37
2022/10/13 07:46:54;;;;;;;1.95;1.00;;;19.40;46.30;;;;;;4913855;29;20669;-37
2022/10/13 07:49:24;;;;;;;2.05;1.13;;;19.40;46.40;;;;;;4913928;29;20739;-37
2022/10/13 07:51:57;;;;;;;1.75;1.10;;;19.40;46.40;;;;;;4914022;29;20683;-42
2022/10/13 07:54:28;;;;;;;1.30;0.90;;;19.30;46.40;;;;;;4944632;28;20305;-38
2022/10/13 07:56:59;;;;;;;1.77;1.20;;;19.30;46.50;;;;;;4936454;28;20648;-38
2022/10/13 07:59:29;;;;;;;1.65;0.90;;;19.30;46.50;;;;;;4931943;29;20563;-37
2022/10/13 08:02:00;;;;;;;2.63;1.10;;;19.20;46.40;;;;;;4932161;29;20648;-38
2022/10/13 08:04:32;;;;;;;1.30;0.98;;;19.20;46.50;;;;;;4932705;29;20231;-39
2022/10/13 08:07:06;;;;;;;1.65;1.13;;;19.20;46.50;;;;;;4933069;29;20214;-37
2022/10/13 08:09:37;;;;;;;1.67;0.95;;;19.20;46.50;;;;;;4948496;29;20254;-38
2022/10/13 08:12:08;;;;;;;2.40;1.10;;;19.10;46.50;;;;;;4952614;28;20667;-37
2022/10/13 08:14:39;;;;;;;1.27;1.00;;;19.10;46.50;;;;;;4944091;28;20228;-37
2022/10/13 08:17:09;;;;;;;2.05;1.23;;;19.10;46.50;;;;;;4932855;29;20223;-37
2022/10/13 08:19:40;;;;;;;2.05;1.25;;;19.10;47.10;;;;;;4932487;29;20199;-37
2022/10/13 08:22:14;;;;;;;1.63;0.90;;;19.00;46.60;;;;;;4932792;29;20206;-37
2022/10/13 08:24:45;;;;;;;1.60;1.20;;;19.00;46.60;;;;;;4948692;28;20741;-37
2022/10/13 08:27:21;;;;;;;1.50;1.27;;;19.00;46.70;;;;;;4936890;28;20215;-37
2022/10/13 08:29:53;;;;;;;1.67;1.25;;;18.90;46.70;;;;;;4931400;29;20660;-37
2022/10/13 08:32:24;;;;;;;2.08;1.30;;;18.90;46.70;;;;;;4932241;29;20652;-37
2022/10/13 08:34:55;;;;;;;1.50;1.23;;;18.90;46.70;;;;;;4932210;29;20700;-37
2022/10/13 08:37:27;;;;;;;1.20;1.10;;;18.90;46.70;;;;;;4932579;29;20207;-37
2022/10/13 08:39:58;;;;;;;1.65;1.10;;;18.90;46.70;;;;;;4949470;29;20202;-36
2022/10/13 08:42:29;;;;;;;1.98;1.40;;;18.80;46.70;;;;;;4951849;28;20206;-37
2022/10/13 08:45:02;;;;;;;2.22;1.40;;;18.80;46.70;;;;;;4955496;28;20702;-39
2022/10/13 08:47:41;;;;;;;1.58;1.23;;;18.80;46.70;;;;;;4955309;28;20787;-37
2022/10/13 08:50:17;;;;;;;1.60;1.20;;;18.80;46.80;;;;;;4955286;28;20693;-38
2022/10/13 08:52:54;;;;;;;2.03;1.48;;;18.70;46.80;;;;;;4936602;29;20205;-40
2022/10/13 08:55:31;;;;;;;1.60;1.10;;;18.70;47.20;;;;;;4917280;29;20227;-38
2022/10/13 08:58:03;;;;;;;1.48;1.30;;;18.70;46.90;;;;;;4935805;29;20210;-38
2022/10/13 09:00:34;;;;;;;1.63;1.30;;;18.70;46.90;;;;;;4936310;29;20222;-38
2022/10/13 09:03:21;;;;;;;1.98;1.30;;;18.60;46.90;;;;;;4935852;29;20238;-42
2022/10/13 09:06:02;;;;;;;1.50;1.27;;;18.60;47.00;;;;;;4935705;29;20203;-37
2022/10/13 09:08:41;;;;;;;2.03;1.48;;;18.60;47.30;;;;;;4939706;29;20203;-37
2022/10/13 09:11:14;;;;;;;3.17;1.40;;;18.60;47.20;;;;;;4948880;28;20203;-41
2022/10/13 09:13:44;;;;;;;1.88;1.30;;;18.60;47.20;;;;;;4928482;29;20203;-41
2022/10/13 09:16:15;;;;;;;2.15;1.20;;;18.60;47.20;;;;;;4935988;29;20214;-42
2022/10/13 09:18:46;;;;;;;2.30;1.40;;;18.60;47.20;;;;;;4923959;29;20196;-44
2022/10/13 09:21:26;;;;;;;1.60;1.45;;;18.60;47.20;;;;;;4917918;29;20204;-48
2022/10/13 09:24:10;;;;;;;2.60;1.58;;;18.50;47.20;;;;;;4917289;29;20235;-42
2022/10/13 09:26:41;;;;;;;1.88;1.35;;;18.50;47.30;;;;;;4927710;29;20192;-40
2022/10/13 09:29:13;;;;;;;2.00;1.50;;;18.50;47.20;;;;;;4935400;29;20200;-46
2022/10/13 09:31:44;;;;;;;1.67;1.48;;;18.40;47.30;;;;;;4917791;29;20220;-37
2022/10/13 09:34:24;;;;;;;2.33;1.50;;;18.40;47.30;;;;;;4917175;29;20220;-41
2022/10/13 09:37:02;;;;;;;2.13;1.60;;;18.40;47.40;;;;;;4917260;29;20712;-37
2022/10/13 09:39:35;;;;;;;1.90;1.40;;;18.40;47.40;;;;;;4916344;29;20200;-41
2022/10/13 09:42:22;;;;;;;1.90;1.30;;;18.40;47.30;;;;;;4919992;29;20207;-47
2022/10/13 09:45:00;;;;;;;2.03;1.55;;;18.40;47.40;;;;;;4917090;29;20243;-38
2022/10/13 09:47:32;;;;;;;3.22;1.58;;;18.40;47.40;;;;;;4917648;29;20716;-39
2022/10/13 09:50:17;;;;;;;2.20;1.50;;;18.40;47.30;;;;;;4932910;29;20203;-37
2022/10/13 09:52:49;;;;;;;1.65;1.27;;;18.40;47.30;;;;;;4917474;29;20215;-38
2022/10/13 09:55:36;;;;;;;1.55;1.30;;;18.30;47.30;;;;;;4916065;29;20220;-44
2022/10/13 09:58:13;;;;;;;2.40;1.70;;;18.30;47.40;;;;;;4916862;29;20196;-42
2022/10/13 10:00:45;;;;;;;1.33;1.23;;;18.30;47.40;;;;;;4915982;29;20295;-44
2022/10/13 10:03:20;;;;;;;1.88;1.48;;;18.30;47.40;;;;;;4915792;29;20220;-44
2022/10/13 10:05:54;;;;;;;1.55;1.40;;;18.20;47.40;;;;;;4916714;29;20223;-40
2022/10/13 10:08:36;;;;;;;2.20;1.38;;;18.20;47.40;;;;;;4917000;29;20211;-44
2022/10/13 10:11:14;;;;;;;2.10;1.45;;;18.20;47.40;;;;;;4917224;29;20287;-44
2022/10/13 10:13:45;;;;;;;2.17;1.40;;;18.20;47.40;;;;;;4916488;29;20204;-44
2022/10/13 10:16:21;;;;;;;1.80;1.42;;;18.20;47.40;;;;;;4931632;29;20223;-46
2022/10/13 10:18:55;;;;;;;2.15;1.38;;;18.20;47.40;;;;;;4917544;29;20211;-50
2022/10/13 10:21:34;;;;;;;1.67;1.27;;;18.20;47.40;;;;;;4916306;29;20427;-41
2022/10/13 10:24:14;;;;;;;1.33;1.10;;;18.20;47.40;;;;;;4916613;29;20232;-39
2022/10/13 10:26:56;;;;;;;1.67;1.52;;;18.20;47.40;;;;;;4927278;29;20207;-47
2022/10/13 10:29:38;;;;;;;1.48;1.38;;;18.10;47.40;;;;;;4935154;29;20622;-44
2022/10/13 10:32:40;;;;;;;2.70;1.60;;;18.10;47.50;;;;;;4934582;29;20283;-37
2022/10/13 10:35:17;;;;;;;2.00;1.38;;;18.10;47.60;;;;;;4929392;29;20234;-48
2022/10/13 10:38:06;;;;;;;1.77;1.40;;;18.10;47.60;;;;;;4934440;29;20203;-43
2022/10/13 10:40:46;;;;;;;1.98;1.60;;;18.00;47.50;;;;;;4915958;29;20211;-43
2022/10/13 10:43:53;;;;;;;1.60;1.27;;;18.00;47.50;;;;;;4916665;29;20259;-44
2022/10/13 10:46:27;;;;;;;2.08;1.60;;;18.00;47.60;;;;;;4916359;29;20200;-41
2022/10/13 10:49:04;;;;;;;1.77;1.40;;;18.00;47.50;;;;;;4915611;29;20200;-50
2022/10/13 10:51:38;;;;;;;1.58;1.27;;;18.00;47.60;;;;;;4916983;29;20656;-39
2022/10/13 10:54:24;;;;;;;1.92;1.40;;;18.00;47.60;;;;;;4915907;29;20243;-46
2022/10/13 10:56:58;;;;;;;2.08;1.70;;;18.00;47.60;;;;;;4928200;29;20664;-44
2022/10/13 10:59:45;;;;;;;2.13;1.77;;;18.00;47.60;;;;;;4934555;29;20204;-48
2022/10/13 11:02:38;;;;;;;2.40;1.58;;;17.90;47.60;;;;;;4933362;29;20197;-46
2022/10/13 11:05:08;;;;;;;1.80;1.42;;;17.90;47.60;;;;;;4934295;29;20227;-46
2022/10/13 11:07:59;;;;;;;1.67;1.42;;;17.90;47.60;;;;;;4934173;29;20736;-37
2022/10/13 11:10:31;;;;;;;1.67;1.58;;;17.90;47.70;;;;;;4935229;29;20673;-42
2022/10/13 11:13:24;;;;;;;2.83;1.60;;;17.90;47.70;;;;;;4933754;29;20207;-44
2022/10/13 11:15:57;;;;;;;2.80;1.92;;;17.80;47.70;;;;;;4933589;29;20207;-41
2022/10/13 11:19:04;;;;;;;2.15;1.88;;;17.80;47.70;;;;;;4933317;29;20195;-43
2022/10/13 11:22:22;;;;;;;2.92;1.88;;;17.80;47.70;;;;;;4941704;29;20199;-38
2022/10/13 11:25:01;;;;;;;2.15;1.80;;;17.80;47.70;;;;;;4952903;28;20226;-40
2022/10/13 11:27:45;;;;;;;2.45;1.70;;;17.80;47.70;;;;;;4935809;28;20207;-39
2022/10/13 11:30:46;;;;;;;2.80;1.80;;;17.80;47.70;;;;;;4933795;29;20196;-37
2022/10/13 11:33:37;;;;;;;1.95;1.60;;;17.70;47.80;;;;;;4933601;29;20238;-39
2022/10/13 11:36:46;;;;;;;2.30;1.65;;;17.70;47.90;;;;;;4937052;29;20209;-42
2022/10/13 11:40:00;;;;;;;2.30;1.90;;;17.70;47.90;;;;;;4952702;28;20220;-43
2022/10/13 11:43:05;;;;;;;1.90;1.70;;;17.70;47.90;;;;;;4953070;28;20199;-38
2022/10/13 11:46:01;;;;;;;1.92;1.67;;;17.70;47.90;;;;;;4940027;28;20241;-43
2022/10/13 11:49:11;;;;;;;3.47;1.90;;;17.60;47.90;;;;;;4910785;29;20544;-41
2022/10/13 11:52:02;;;;;;;2.08;1.70;;;17.60;47.90;;;;;;4933646;29;20571;-43
2022/10/13 11:54:38;;;;;;;2.85;1.50;;;17.60;47.90;;;;;;4952342;28;20674;-43
2022/10/13 11:57:20;;;;;;;2.03;1.83;;;17.60;47.90;;;;;;4938121;28;20206;-40
2022/10/13 11:59:54;;;;;;;2.28;1.70;;;17.60;47.90;;;;;;4932794;29;20207;-44
2022/10/13 12:02:26;;;;;;;2.47;1.65;;;17.60;47.90;;;;;;4932533;29;20199;-44
2022/10/13 12:05:07;;;;;;;2.97;1.73;;;17.60;47.90;;;;;;4932753;29;20238;-39
2022/10/13 12:07:42;;;;;;;2.42;2.10;;;17.60;48.00;;;;;;4946979;29;20202;-40
2022/10/13 12:10:24;;;;;;;2.58;1.65;;;17.60;48.00;;;;;;4951861;28;20203;-40
2022/10/13 12:12:55;;;;;;;2.08;1.50;;;17.60;48.00;;;;;;4951732;28;20214;-38
2022/10/13 12:15:34;;;;;;;2.38;1.77;;;17.50;48.00;;;;;;4951806;28;20715;-47
2022/10/13 12:18:20;;;;;;;2.25;1.67;;;17.50;48.00;;;;;;4951278;28;20226;-41
2022/10/13 12:20:56;;;;;;;2.42;1.60;;;17.50;48.00;;;;;;4951548;28;20269;-41
2022/10/13 12:23:29;;;;;;;1.95;1.75;;;17.50;48.00;;;;;;4913912;29;20207;-38
2022/10/13 12:26:00;;;;;;;1.92;1.60;;;17.50;48.00;;;;;;4918564;29;20211;-38
2022/10/13 12:28:44;;;;;;;3.03;1.80;;;17.50;48.10;;;;;;4932745;29;20200;-37
2022/10/13 12:31:21;;;;;;;3.00;1.98;;;17.50;48.00;;;;;;4932903;29;20203;-37
2022/10/13 12:33:59;;;;;;;2.22;1.63;;;17.50;48.00;;;;;;4932456;29;20594;-39
2022/10/13 12:36:31;;;;;;;2.08;1.60;;;17.50;48.00;;;;;;4932753;29;20210;-38
2022/10/13 12:39:08;;;;;;;2.25;1.80;;;17.50;48.00;;;;;;4932469;29;20286;-42
2022/10/13 12:41:42;;;;;;;1.92;1.58;;;17.40;48.00;;;;;;4932511;29;20207;-39
2022/10/13 12:44:16;;;;;;;3.40;1.92;;;17.40;48.00;;;;;;4932853;29;20227;-40
2022/10/13 12:46:50;;;;;;;2.13;1.67;;;17.40;48.00;;;;;;4932254;29;20206;-44
2022/10/13 12:49:24;;;;;;;2.55;1.70;;;17.40;48.00;;;;;;4932107;29;20241;-41
2022/10/13 12:51:59;;;;;;;2.58;1.80;;;17.40;48.00;;;;;;4930802;29;20191;-39
2022/10/13 12:54:33;;;;;;;3.30;2.13;;;17.40;48.10;;;;;;4931952;29;20443;-39
2022/10/13 12:57:06;;;;;;;2.03;1.70;;;17.40;48.10;;;;;;4932677;29;20681;-39
2022/10/13 12:59:40;;;;;;;2.28;1.75;;;17.30;48.10;;;;;;4932641;29;20204;-38
2022/10/13 13:02:23;;;;;;;2.67;1.92;;;17.30;48.10;;;;;;4932529;29;20245;-39
2022/10/13 13:04:54;;;;;;;2.25;1.63;;;17.30;48.00;;;;;;4932231;29;20241;-43
2022/10/13 13:07:35;;;;;;;1.80;1.70;;;17.30;48.00;;;;;;4941229;29;20199;-44
2022/10/13 13:10:18;;;;;;;2.35;1.63;;;17.30;48.00;;;;;;4951731;28;20199;-37
2022/10/13 13:12:49;;;;;;;3.22;2.08;;;17.30;48.10;;;;;;4951784;28;20199;-40
2022/10/13 13:15:38;;;;;;;2.35;1.70;;;17.30;48.10;;;;;;4951378;28;20215;-42
2022/10/13 13:18:35;;;;;;;2.10;1.58;;;17.20;48.10;;;;;;4951318;28;20754;-45
2022/10/13 13:21:08;;;;;;;2.35;1.85;;;17.20;48.10;;;;;;4951493;28;20210;-38
2022/10/13 13:23:39;;;;;;;2.47;2.00;;;17.20;48.10;;;;;;4950153;28;20694;-40
2022/10/13 13:26:15;;;;;;;2.20;1.80;;;17.20;48.10;;;;;;4945232;28;20241;-44
2022/10/13 13:28:48;;;;;;;3.55;2.00;;;17.20;48.20;;;;;;4932065;29;20203;-41